createdAt,value
2018-08-04T00:02:21.482Z,4.53
2018-08-04T00:04:49.664Z,4.85
2018-08-04T00:07:17.966Z,4.80
2018-08-04T00:09:46.151Z,4.67
2018-08-04T00:12:14.372Z,4.60
2018-08-04T00:14:42.541Z,4.87
2018-08-04T00:17:10.541Z,4.80
2018-08-04T00:19:38.716Z,4.40
2018-08-04T00:22:06.774Z,4.90
2018-08-04T00:24:35.047Z,4.60
2018-08-04T00:27:03.478Z,4.45
2018-08-04T00:29:31.779Z,4.53
2018-08-04T00:32:00.004Z,4.60
2018-08-04T00:34:28.170Z,4.62
2018-08-04T00:36:56.512Z,7.55
2018-08-04T00:39:24.769Z,6.03
2018-08-04T00:41:52.814Z,5.60
2018-08-04T00:44:20.920Z,4.58
2018-08-04T00:46:49.088Z,4.55
2018-08-04T00:49:17.919Z,4.90
2018-08-04T00:51:46.148Z,5.00
2018-08-04T00:54:14.556Z,5.08
2018-08-04T00:56:42.753Z,5.42
2018-08-04T00:59:11.116Z,5.03
2018-08-04T01:01:39.648Z,5.28
2018-08-04T01:04:07.754Z,5.40
2018-08-04T01:06:36.399Z,5.20
2018-08-04T01:09:05.954Z,5.28
2018-08-04T01:11:34.451Z,5.20
2018-08-04T01:14:02.593Z,5.70
2018-08-04T01:16:30.914Z,5.37
2018-08-04T01:18:59.087Z,5.37
2018-08-04T01:21:27.323Z,5.60
2018-08-04T01:23:55.528Z,5.58
2018-08-04T01:26:23.804Z,5.65
2018-08-04T01:28:51.830Z,5.42
2018-08-04T01:31:19.974Z,5.65
2018-08-04T01:33:48.426Z,5.78
2018-08-04T01:36:16.627Z,5.40
2018-08-04T01:38:44.813Z,5.70
2018-08-04T01:41:12.898Z,5.60
2018-08-04T01:43:41.043Z,5.57
2018-08-04T01:46:09.294Z,6.20
2018-08-04T01:48:37.493Z,6.20
2018-08-04T01:51:05.855Z,5.60
2018-08-04T01:53:34.220Z,5.70
2018-08-04T01:56:02.686Z,5.80
2018-08-04T01:58:30.986Z,5.83
2018-08-04T02:00:59.557Z,6.17
2018-08-04T02:03:28.059Z,5.70
2018-08-04T02:05:56.279Z,5.60
2018-08-04T02:08:24.631Z,5.57
2018-08-04T02:10:52.649Z,5.80
2018-08-04T02:13:21.384Z,5.80
2018-08-04T02:15:49.426Z,5.60
2018-08-04T02:18:17.477Z,5.80
2018-08-04T02:20:45.766Z,5.70
2018-08-04T02:23:14.022Z,6.17
2018-08-04T02:25:42.113Z,5.30
2018-08-04T02:28:10.502Z,5.73
2018-08-04T02:30:38.821Z,5.60
2018-08-04T02:33:07.115Z,5.85
2018-08-04T02:35:35.425Z,6.25
2018-08-04T02:38:03.905Z,6.00
2018-08-04T02:40:32.431Z,5.78
2018-08-04T02:43:01.016Z,5.70
2018-08-04T02:45:29.356Z,5.78
2018-08-04T02:47:57.845Z,5.78
2018-08-04T02:50:26.013Z,5.97
2018-08-04T02:52:54.965Z,5.62
2018-08-04T02:55:23.130Z,6.00
2018-08-04T02:57:52.450Z,6.30
2018-08-04T03:00:20.961Z,6.55
2018-08-04T03:02:49.565Z,6.22
2018-08-04T03:05:18.134Z,6.15
2018-08-04T03:07:46.190Z,5.50
2018-08-04T03:10:14.934Z,6.50
2018-08-04T03:12:44.010Z,5.85
2018-08-04T03:15:12.612Z,6.42
2018-08-04T03:17:40.619Z,6.20
2018-08-04T03:20:09.577Z,6.35
2018-08-04T03:22:38.494Z,6.90
2018-08-04T03:25:06.794Z,6.90
2018-08-04T03:27:35.078Z,7.10
2018-08-04T03:30:03.683Z,6.50
2018-08-04T03:32:31.726Z,6.53
2018-08-04T03:35:01.265Z,7.08
2018-08-04T03:37:29.868Z,7.10
2018-08-04T03:39:57.993Z,5.80
2018-08-04T03:42:26.280Z,7.15
2018-08-04T03:44:54.479Z,6.15
2018-08-04T03:47:23.311Z,7.00
2018-08-04T03:49:51.479Z,6.22
2018-08-04T03:52:20.537Z,5.92
2018-08-04T03:54:48.843Z,5.43
2018-08-04T03:57:17.701Z,5.80
2018-08-04T03:59:46.104Z,6.10
2018-08-04T04:02:14.999Z,6.90
2018-08-04T04:04:43.133Z,5.62
2018-08-04T04:07:11.242Z,5.80
2018-08-04T04:09:39.698Z,5.70
2018-08-04T04:12:08.901Z,5.20
2018-08-04T04:14:37.581Z,5.60
2018-08-04T04:18:02.186Z,5.00
2018-08-04T04:20:30.537Z,5.47
2018-08-04T04:22:58.837Z,4.83
2018-08-04T04:25:26.905Z,4.75
2018-08-04T04:27:55.290Z,4.70
2018-08-04T04:30:23.641Z,4.58
2018-08-04T04:32:51.972Z,3.80
2018-08-04T04:35:20.005Z,4.35
2018-08-04T04:37:48.078Z,3.90
2018-08-04T04:40:16.109Z,4.40
2018-08-04T04:42:44.778Z,3.45
2018-08-04T04:45:13.130Z,4.27
2018-08-04T04:47:41.507Z,3.90
2018-08-04T04:50:10.195Z,3.72
2018-08-04T04:52:39.197Z,3.80
2018-08-04T04:55:07.974Z,3.90
2018-08-04T04:57:36.317Z,3.83
2018-08-04T05:00:04.941Z,3.60
2018-08-04T05:02:33.228Z,3.50
2018-08-04T05:05:01.490Z,3.22
2018-08-04T05:07:29.833Z,3.37
2018-08-04T05:09:58.760Z,3.15
2018-08-04T05:12:27.792Z,3.20
2018-08-04T05:14:56.642Z,3.60
2018-08-04T05:17:25.516Z,3.25
2018-08-04T05:19:53.526Z,3.22
2018-08-04T05:22:21.990Z,2.97
2018-08-04T05:24:50.368Z,2.80
2018-08-04T05:27:18.846Z,2.60
2018-08-04T05:29:47.186Z,2.45
2018-08-04T05:32:15.289Z,2.50
2018-08-04T05:34:43.360Z,2.20
2018-08-04T05:37:11.654Z,2.50
2018-08-04T05:39:39.701Z,2.70
2018-08-04T05:42:07.860Z,2.50
2018-08-04T05:44:36.282Z,2.10
2018-08-04T05:47:04.958Z,2.67
2018-08-04T05:49:33.337Z,2.40
2018-08-04T05:52:01.402Z,2.62
2018-08-04T05:54:29.457Z,2.30
2018-08-04T05:56:57.594Z,2.30
2018-08-04T05:59:25.829Z,2.10
2018-08-04T06:01:53.950Z,2.12
2018-08-04T06:04:22.289Z,2.50
2018-08-04T06:06:50.358Z,2.80
2018-08-04T06:09:19.069Z,3.25
2018-08-04T06:11:47.732Z,3.40
2018-08-04T06:14:16.002Z,3.20
2018-08-04T06:16:44.099Z,2.90
2018-08-04T06:19:12.353Z,2.50
2018-08-04T06:21:40.467Z,2.50
2018-08-04T06:24:08.881Z,2.50
2018-08-04T06:26:37.612Z,2.10
2018-08-04T06:29:06.281Z,1.70
2018-08-04T06:31:34.625Z,2.35
2018-08-04T06:34:03.047Z,1.80
2018-08-04T06:36:31.107Z,2.20
2018-08-04T06:38:59.453Z,2.30
2018-08-04T06:41:27.513Z,1.70
2018-08-04T06:43:55.948Z,2.00
2018-08-04T06:46:24.550Z,2.10
2018-08-04T06:48:52.505Z,1.70
2018-08-04T06:51:20.580Z,1.80
2018-08-04T06:53:48.808Z,1.90
2018-08-04T06:56:16.870Z,1.90
2018-08-04T06:58:44.859Z,1.80
2018-08-04T07:01:12.854Z,1.60
2018-08-04T07:03:41.534Z,1.57
2018-08-04T07:06:09.550Z,1.95
2018-08-04T07:08:37.586Z,1.95
2018-08-04T07:11:05.648Z,1.70
2018-08-04T07:13:34.137Z,1.77
2018-08-04T07:16:02.139Z,1.40
2018-08-04T07:18:30.173Z,1.72
2018-08-04T07:20:58.121Z,1.70
2018-08-04T07:23:26.193Z,1.90
2018-08-04T07:25:54.224Z,1.82
2018-08-04T07:28:22.268Z,1.75
2018-08-04T07:30:50.259Z,2.10
2018-08-04T07:33:18.273Z,1.75
2018-08-04T07:35:46.248Z,1.95
2018-08-04T07:38:14.306Z,1.90
2018-08-04T07:40:42.348Z,1.90
2018-08-04T07:43:10.287Z,1.87
2018-08-04T07:45:38.288Z,2.05
2018-08-04T07:48:07.072Z,1.85
2018-08-04T07:50:35.060Z,1.95
2018-08-04T07:53:03.054Z,2.10
2018-08-04T07:55:33.704Z,1.80
2018-08-04T07:58:01.704Z,1.60
2018-08-04T08:00:29.729Z,1.70
2018-08-04T08:02:57.849Z,1.57
2018-08-04T08:05:25.779Z,1.83
2018-08-04T08:07:53.859Z,1.80
2018-08-04T08:10:22.012Z,1.60
2018-08-04T08:12:49.951Z,1.60
2018-08-04T08:15:18.068Z,1.70
2018-08-04T08:17:46.119Z,1.40
2018-08-04T08:20:14.715Z,1.65
2018-08-04T08:22:43.721Z,1.42
2018-08-04T08:25:12.042Z,1.60
2018-08-04T08:27:40.488Z,1.77
2018-08-04T08:30:09.577Z,1.50
2018-08-04T08:32:37.621Z,1.77
2018-08-04T08:35:05.788Z,1.75
2018-08-04T08:37:41.197Z,1.45
2018-08-04T08:40:10.419Z,1.60
2018-08-04T08:42:38.388Z,2.20
2018-08-04T08:45:07.340Z,2.27
2018-08-04T08:47:35.593Z,2.10
2018-08-04T08:50:04.590Z,2.60
2018-08-04T08:52:32.886Z,1.95
2018-08-04T08:55:00.903Z,2.30
2018-08-04T08:57:28.879Z,1.92
2018-08-04T08:59:57.772Z,1.87
2018-08-04T09:02:26.338Z,2.35
2018-08-04T09:04:54.573Z,2.30
2018-08-04T09:07:22.811Z,2.90
2018-08-04T09:09:50.768Z,3.70
2018-08-04T09:12:18.706Z,3.30
2018-08-04T09:14:46.602Z,2.77
2018-08-04T09:17:14.827Z,2.80
2018-08-04T09:19:43.109Z,2.70
2018-08-04T09:22:11.156Z,2.65
2018-08-04T09:24:39.212Z,2.60
2018-08-04T09:27:07.110Z,3.10
2018-08-04T09:29:35.906Z,2.90
2018-08-04T09:32:04.156Z,2.50
2018-08-04T09:34:32.324Z,2.00
2018-08-04T09:37:00.485Z,2.20
2018-08-04T09:39:28.614Z,1.87
2018-08-04T09:41:56.881Z,1.82
2018-08-04T09:44:24.804Z,1.55
2018-08-04T09:46:53.136Z,1.67
2018-08-04T09:49:21.109Z,1.60
2018-08-04T09:51:49.068Z,1.50
2018-08-04T09:54:17.040Z,1.60
2018-08-04T09:56:45.013Z,1.30
2018-08-04T09:59:13.171Z,1.30
2018-08-04T10:01:41.705Z,1.35
2018-08-04T10:04:10.253Z,1.50
2018-08-04T10:06:38.188Z,1.40
2018-08-04T10:09:07.414Z,1.27
2018-08-04T10:11:35.738Z,1.60
2018-08-04T10:14:04.227Z,1.20
2018-08-04T10:16:32.489Z,1.30
2018-08-04T10:19:00.643Z,1.25
2018-08-04T10:21:29.226Z,1.40
2018-08-04T10:23:57.694Z,1.10
2018-08-04T10:26:25.788Z,1.35
2018-08-04T10:28:54.070Z,1.32
2018-08-04T10:31:22.950Z,1.40
2018-08-04T10:33:51.257Z,1.40
2018-08-04T10:36:19.523Z,1.20
2018-08-04T10:38:47.595Z,1.40
2018-08-04T10:41:16.179Z,1.20
2018-08-04T10:43:44.331Z,2.00
2018-08-04T10:46:12.564Z,1.10
2018-08-04T10:48:40.734Z,1.30
2018-08-04T10:51:08.857Z,1.70
2018-08-04T10:53:37.075Z,1.47
2018-08-04T10:56:05.201Z,1.60
2018-08-04T10:58:33.543Z,1.80
2018-08-04T11:01:01.665Z,1.40
2018-08-04T11:03:29.791Z,1.60
2018-08-04T11:05:57.937Z,2.05
2018-08-04T11:08:26.016Z,1.40
2018-08-04T11:10:54.178Z,1.60
2018-08-04T11:13:22.434Z,1.45
2018-08-04T11:15:50.583Z,1.85
2018-08-04T11:18:18.739Z,1.40
2018-08-04T11:20:46.851Z,1.60
2018-08-04T11:23:15.014Z,1.40
2018-08-04T11:25:43.065Z,1.60
2018-08-04T11:28:11.384Z,1.45
2018-08-04T11:30:39.494Z,1.60
2018-08-04T11:33:07.628Z,1.40
2018-08-04T11:35:35.701Z,1.30
2018-08-04T11:38:04.092Z,1.67
2018-08-04T11:40:32.183Z,1.40
2018-08-04T11:43:01.061Z,1.62
2018-08-04T11:45:29.374Z,1.57
2018-08-04T11:47:57.990Z,1.52
2018-08-04T11:50:26.212Z,1.60
2018-08-04T11:52:54.410Z,1.37
2018-08-04T11:55:23.001Z,1.40
2018-08-04T11:57:51.005Z,1.20
2018-08-04T12:00:19.565Z,1.30
2018-08-04T12:02:47.577Z,1.50
2018-08-04T12:05:15.630Z,1.30
2018-08-04T12:07:43.878Z,1.30
2018-08-04T12:10:12.187Z,1.30
2018-08-04T12:12:40.198Z,1.20
2018-08-04T12:15:08.270Z,1.30
2018-08-04T12:17:36.568Z,1.20
2018-08-04T12:20:04.908Z,1.32
2018-08-04T12:22:32.969Z,1.10
2018-08-04T12:25:00.995Z,1.40
2018-08-04T12:27:29.061Z,1.70
2018-08-04T12:29:57.384Z,1.20
2018-08-04T12:32:25.385Z,1.20
2018-08-04T12:34:53.690Z,1.10
2018-08-04T12:37:21.818Z,1.82
2018-08-04T12:39:49.881Z,1.42
2018-08-04T12:42:18.126Z,1.80
2018-08-04T12:44:46.204Z,1.50
2018-08-04T12:47:14.213Z,1.90
2018-08-04T12:49:42.466Z,2.10
2018-08-04T12:52:10.724Z,1.50
2018-08-04T12:54:38.785Z,1.60
2018-08-04T12:57:07.623Z,1.40
2018-08-04T12:59:37.850Z,1.67
2018-08-04T13:02:06.173Z,1.17
2018-08-04T13:04:34.906Z,1.10
2018-08-04T13:07:03.134Z,1.50
2018-08-04T13:09:31.546Z,1.15
2018-08-04T13:12:00.002Z,1.20
2018-08-04T13:14:29.057Z,1.07
2018-08-04T13:16:57.176Z,1.20
2018-08-04T13:19:25.350Z,1.27
2018-08-04T13:21:53.686Z,1.10
2018-08-04T13:24:21.916Z,1.40
2018-08-04T13:26:50.480Z,1.10
2018-08-04T13:29:19.504Z,1.00
2018-08-04T13:31:47.525Z,2.15
2018-08-04T13:34:15.957Z,3.30
2018-08-04T13:36:44.415Z,1.70
2018-08-04T13:39:12.699Z,1.27
2018-08-04T13:41:41.871Z,1.10
2018-08-04T13:44:10.347Z,1.00
2018-08-04T13:46:38.980Z,1.10
2018-08-04T13:49:07.145Z,1.12
2018-08-04T13:51:35.767Z,1.10
2018-08-04T13:54:04.123Z,1.10
2018-08-04T13:56:32.322Z,1.10
2018-08-04T13:59:00.829Z,1.25
2018-08-04T14:01:29.037Z,1.10
2018-08-04T14:03:57.271Z,1.20
2018-08-04T14:06:25.493Z,0.90
2018-08-04T14:08:53.793Z,1.33
2018-08-04T14:11:21.998Z,1.70
2018-08-04T14:13:50.600Z,1.30
2018-08-04T14:16:18.603Z,1.20
2018-08-04T14:18:46.966Z,1.03
2018-08-04T14:21:15.347Z,1.20
2018-08-04T14:23:43.430Z,1.25
2018-08-04T14:26:11.704Z,1.30
2018-08-04T14:28:40.218Z,1.20
2018-08-04T14:31:08.670Z,1.20
2018-08-04T14:33:36.925Z,1.10
2018-08-04T14:36:05.257Z,1.10
2018-08-04T14:38:33.301Z,1.70
2018-08-04T14:41:01.549Z,1.62
2018-08-04T14:43:30.080Z,1.50
2018-08-04T14:45:58.106Z,1.90
2018-08-04T14:48:26.606Z,1.67
2018-08-04T14:50:54.879Z,1.47
2018-08-04T14:53:22.983Z,1.60
2018-08-04T14:55:51.165Z,1.40
2018-08-04T14:58:19.221Z,1.55
2018-08-04T15:00:47.453Z,1.40
2018-08-04T15:03:15.745Z,1.32
2018-08-04T15:05:43.791Z,1.17
2018-08-04T15:08:11.826Z,1.20
2018-08-04T15:10:39.858Z,1.40
2018-08-04T15:13:08.456Z,1.30
2018-08-04T15:15:36.495Z,1.50
2018-08-04T15:18:04.866Z,1.70
2018-08-04T15:20:32.954Z,1.50
2018-08-04T15:23:01.173Z,1.30
2018-08-04T15:25:29.285Z,1.60
2018-08-04T15:27:57.369Z,1.50
2018-08-04T15:30:25.474Z,1.70
2018-08-04T15:32:53.504Z,1.57
2018-08-04T15:35:21.807Z,1.80
2018-08-04T15:37:50.363Z,1.30
2018-08-04T15:40:18.865Z,1.60
2018-08-04T15:42:46.952Z,1.53
2018-08-04T15:45:15.058Z,1.20
2018-08-04T15:47:43.819Z,1.20
2018-08-04T15:50:12.000Z,1.30
2018-08-04T15:52:40.137Z,1.30
2018-08-04T15:55:08.182Z,1.20
2018-08-04T15:57:36.510Z,1.37
2018-08-04T16:00:05.439Z,1.27
2018-08-04T16:02:33.479Z,1.10
2018-08-04T16:05:01.533Z,1.20
2018-08-04T16:07:29.650Z,1.70
2018-08-04T16:09:58.326Z,1.20
2018-08-04T16:12:26.428Z,1.40
2018-08-04T16:14:54.504Z,2.50
2018-08-04T16:17:22.710Z,2.10
2018-08-04T16:19:50.979Z,2.00
2018-08-04T16:22:19.234Z,1.35
2018-08-04T16:24:47.389Z,1.70
2018-08-04T16:27:15.546Z,1.50
2018-08-04T16:29:43.770Z,1.35
2018-08-04T16:32:11.777Z,1.20
2018-08-04T16:34:39.948Z,1.07
2018-08-04T16:37:08.037Z,1.07
2018-08-04T16:39:36.110Z,1.00
2018-08-04T16:42:04.220Z,0.80
2018-08-04T16:44:32.270Z,1.00
2018-08-04T16:47:00.395Z,0.90
2018-08-04T16:49:28.546Z,1.00
2018-08-04T16:51:56.738Z,1.00
2018-08-04T16:54:25.060Z,1.07
2018-08-04T16:56:53.208Z,1.30
2018-08-04T16:59:21.358Z,1.87
2018-08-04T17:01:49.411Z,2.08
2018-08-04T17:04:17.595Z,1.70
2018-08-04T17:06:46.081Z,1.60
2018-08-04T17:09:14.118Z,2.90
2018-08-04T17:11:42.497Z,3.60
2018-08-04T17:14:10.576Z,1.65
2018-08-04T17:16:38.738Z,1.20
2018-08-04T17:19:07.186Z,1.30
2018-08-04T17:21:35.285Z,1.10
2018-08-04T17:24:03.353Z,1.10
2018-08-04T17:26:31.447Z,1.10
2018-08-04T17:28:59.474Z,1.30
2018-08-04T17:31:27.567Z,1.12
2018-08-04T17:33:56.090Z,1.00
2018-08-04T17:36:24.254Z,1.00
2018-08-04T17:38:52.305Z,1.50
2018-08-04T17:41:20.462Z,1.45
2018-08-04T17:43:48.914Z,1.40
2018-08-04T17:46:16.982Z,1.42
2018-08-04T17:48:45.063Z,1.32
2018-08-04T17:51:13.228Z,1.70
2018-08-04T17:53:41.357Z,1.70
2018-08-04T17:56:09.385Z,2.10
2018-08-04T17:58:37.622Z,1.65
2018-08-04T18:01:05.745Z,2.00
2018-08-04T18:03:33.801Z,1.90
2018-08-04T18:06:02.066Z,1.60
2018-08-04T18:08:30.465Z,1.80
2018-08-04T18:10:58.644Z,1.70
2018-08-04T18:13:26.959Z,1.50
2018-08-04T18:15:55.005Z,1.40
2018-08-04T18:18:23.063Z,1.52
2018-08-04T18:20:51.056Z,1.40
2018-08-04T18:23:19.305Z,1.80
2018-08-04T18:25:47.558Z,1.20
2018-08-04T18:28:15.775Z,1.72
2018-08-04T18:30:43.825Z,1.87
2018-08-04T18:33:11.977Z,2.02
2018-08-04T18:35:40.027Z,2.30
2018-08-04T18:38:08.127Z,2.00
2018-08-04T18:40:36.250Z,2.00
2018-08-04T18:43:04.272Z,1.60
2018-08-04T18:45:32.444Z,1.65
2018-08-04T18:48:00.542Z,2.63
2018-08-04T18:50:28.586Z,2.10
2018-08-04T18:52:56.629Z,2.40
2018-08-04T18:55:24.967Z,3.90
2018-08-04T18:57:53.190Z,3.95
2018-08-04T19:00:21.238Z,2.27
2018-08-04T19:02:49.485Z,2.33
2018-08-04T19:05:17.680Z,1.80
2018-08-04T19:07:45.745Z,3.05
2018-08-04T19:10:13.900Z,2.77
2018-08-04T19:12:41.962Z,2.30
2018-08-04T19:15:10.025Z,3.00
2018-08-04T19:17:38.101Z,2.20
2018-08-04T19:20:06.165Z,1.77
2018-08-04T19:22:34.477Z,2.02
2018-08-04T19:25:02.706Z,2.20
2018-08-04T19:27:30.950Z,1.40
2018-08-04T19:29:59.008Z,1.40
2018-08-04T19:32:27.122Z,1.20
2018-08-04T19:34:55.276Z,1.50
2018-08-04T19:37:23.743Z,1.60
2018-08-04T19:39:51.823Z,1.40
2018-08-04T19:42:20.235Z,1.35
2018-08-04T19:44:48.434Z,1.50
2018-08-04T19:47:16.499Z,1.95
2018-08-04T19:49:44.602Z,1.30
2018-08-04T19:52:12.699Z,2.00
2018-08-04T19:54:40.857Z,1.80
2018-08-04T19:57:09.232Z,1.70
2018-08-04T19:59:37.534Z,1.10
2018-08-04T20:02:05.827Z,1.20
2018-08-04T20:04:33.908Z,1.20
2018-08-04T20:07:02.131Z,1.10
2018-08-04T20:09:30.271Z,1.20
2018-08-04T20:11:58.404Z,1.32
2018-08-04T20:14:26.491Z,1.22
2018-08-04T20:16:54.631Z,1.10
2018-08-04T20:19:22.704Z,1.20
2018-08-04T20:21:50.794Z,1.30
2018-08-04T20:24:19.071Z,1.10
2018-08-04T20:26:47.182Z,1.10
2018-08-04T20:29:15.406Z,1.30
2018-08-04T20:31:43.441Z,1.30
2018-08-04T20:34:11.575Z,1.20
2018-08-04T20:36:39.706Z,1.20
2018-08-04T20:39:08.352Z,1.10
2018-08-04T20:41:36.530Z,1.10
2018-08-04T20:44:04.676Z,1.30
2018-08-04T20:46:32.697Z,1.20
2018-08-04T20:49:00.762Z,1.20
2018-08-04T20:51:28.836Z,1.10
2018-08-04T20:53:56.942Z,1.12
2018-08-04T20:56:25.286Z,1.22
2018-08-04T20:58:53.789Z,1.20
2018-08-04T21:01:27.458Z,1.20
2018-08-04T21:03:55.713Z,1.40
2018-08-04T21:06:23.802Z,1.90
2018-08-04T21:08:52.236Z,1.10
2018-08-04T21:11:20.685Z,1.25
2018-08-04T21:13:48.827Z,1.20
2018-08-04T21:16:17.158Z,1.45
2018-08-04T21:18:45.203Z,1.30
2018-08-04T21:21:13.255Z,1.10
2018-08-04T21:23:41.362Z,1.20
2018-08-04T21:26:09.498Z,1.55
2018-08-04T21:28:37.549Z,1.17
2018-08-04T21:31:05.908Z,1.20
2018-08-04T21:33:34.203Z,1.30
2018-08-04T21:36:02.571Z,1.30
2018-08-04T21:38:31.252Z,1.20
2018-08-04T21:40:59.323Z,1.17
2018-08-04T21:43:27.897Z,1.30
2018-08-04T21:45:56.274Z,1.00
2018-08-04T21:48:24.330Z,1.15
2018-08-04T21:50:52.451Z,1.10
2018-08-04T21:53:20.567Z,1.30
2018-08-04T21:55:48.962Z,1.20
2018-08-04T21:58:17.364Z,1.50
2018-08-04T22:00:50.747Z,1.10
2018-08-04T22:03:18.941Z,1.20
2018-08-04T22:05:47.052Z,1.32
2018-08-04T22:08:20.921Z,1.10
2018-08-04T22:10:48.999Z,1.27
2018-08-04T22:13:17.149Z,1.10
2018-08-04T22:15:45.776Z,1.30
2018-08-04T22:18:13.823Z,1.10
2018-08-04T22:20:42.011Z,1.10
2018-08-04T22:23:10.122Z,1.27
2018-08-04T22:25:38.266Z,1.20
2018-08-04T22:28:06.318Z,1.37
2018-08-04T22:30:34.478Z,1.20
2018-08-04T22:33:02.612Z,1.17
2018-08-04T22:35:30.722Z,1.30
2018-08-04T22:37:58.823Z,1.50
2018-08-04T22:41:58.365Z,1.37
2018-08-04T22:44:27.133Z,1.20
2018-08-04T22:46:55.290Z,1.30
2018-08-04T22:49:23.454Z,1.50
2018-08-04T22:51:51.624Z,1.40
2018-08-04T22:57:00.797Z,1.90
2018-08-04T22:59:29.135Z,1.30
2018-08-04T23:01:57.310Z,1.30
2018-08-04T23:04:25.347Z,1.22
2018-08-04T23:06:53.721Z,1.50
2018-08-04T23:09:22.153Z,1.35
2018-08-04T23:11:50.305Z,1.30
2018-08-04T23:14:18.408Z,1.50
2018-08-04T23:16:46.475Z,1.30
2018-08-04T23:19:14.885Z,1.00
2018-08-04T23:21:43.195Z,1.00
2018-08-04T23:24:11.288Z,1.22
2018-08-04T23:26:39.402Z,1.60
2018-08-04T23:29:07.526Z,4.28
2018-08-04T23:31:35.794Z,1.47
2018-08-04T23:34:03.867Z,0.90
2018-08-04T23:36:31.974Z,1.00
2018-08-04T23:39:00.237Z,1.00
2018-08-04T23:41:28.326Z,1.10
2018-08-04T23:43:56.419Z,0.90
2018-08-04T23:46:24.441Z,1.00
2018-08-04T23:48:52.674Z,0.90
2018-08-04T23:51:20.710Z,1.20
2018-08-04T23:53:48.813Z,1.20
2018-08-04T23:56:16.914Z,1.10
2018-08-04T23:58:45.245Z,1.00
